Flight Number: EUR2033 Duration: 0:45
Departure: Munich Int'l (EDDM) at 06:45 Distance: 192 Nm
Arrival: Vienna Schwechat (LOWW) at 07:30 Equipment: B737

Weather Information
Munchen, Germany (EDDM) 48-21N 011-47E Jan 23, 2018 - 04:50 AM EST / 2018.01.23 0950 UTC
Wind: from the WSW (250 degrees) at 9 MPH (8 KT):0
Visibility: greater than 7 mile(s):0
Sky conditions: mostly cloudy Temperature: 39 F (4 C) Dew Point: 33 F (1 C) Relative Humidity: 80% Pressure (altimeter): 30.30 in. Hg (1026 hPa)
ob: EDDM 230950Z 25008KT 9999 FEW025 BKN060 04/01 Q1026 R88/290095 NOSIG cycle: 10
Sunrise: 06:55 Sunset: 15:54 (UTC)

Wien / Schwechat-Flughafen, Austria (LOWW) 48-07N 016-34E 190M Jan 23, 2018 - 04:50 AM EST / 2018.01.23 0950 UTC
Wind: Variable at 1 MPH (1 KT):0
Visibility: 3 mile(s):0
Sky conditions: mostly cloudy Weather: light rain; mist Temperature: 35 F (2 C) Dew Point: 33 F (1 C) Relative Humidity: 93% Pressure (altimeter): 30.24 in. Hg (1024 hPa)
ob: LOWW 230950Z VRB01KT 5000 -RA BR FEW022 BKN026 02/01 Q1024 R88/29//95 NOSIG cycle: 10
Sunrise: 06:35 Sunset: 15:35 (UTC)

TAF:2018/01/23 09:07 TAF AMD LOWW 230902Z 2309/2412 36007KT 9000 -RA FEW010 OVC020 TX04/2314Z TN01/2309Z TEMPO 2309/2311 3000 -RA BR FEW003 BKN006 OVC015 FM231500 27007KT 9999 FEW020 BKN040 BECMG 2400/2403 17007KT 5000 BR FEW001 SCT030 BKN250 TEMPO 2403/2407 2000 BKN001 TEMPO 2407/2409 3000 BKN002 BECMG 2409/2411 9999 BKN040

Previous Pireps for this route
Date Aircraft Flight time Fuel used Landing rate On time
2012-09-27B7370.595900-312No
2012-10-23B73701.1010845-584No
2012-12-29B737.4343000No
2013-03-26B7371.1100000No
2013-04-23B7372120000No
2013-05-28B7370.5350000No
2013-07-07B73701.128013-665No
2013-07-09B73700.545867-668No
2013-07-11B73700.465508-398No
2013-07-23B73700.505000-350No
2013-10-26B73701.178464-134No
2014-03-23B73701.098745-348Yes
2014-06-25B7371.2032540No
2014-08-23B73701.056921-175Yes
2014-12-08B73701.0052030Charter
2015-01-12B73701.155483-96Yes
2015-01-13B73701.175392-243Yes
2015-01-27B73701.146651-138Yes
2015-03-12B73700.524863-168Yes
2015-03-28B73700.413913-98Yes
2015-04-06B73700.442904-152Yes
2015-07-12B7370.4651380Yes
2015-07-15B7370.5053240Yes
2015-08-17B77701.4917819-556Charter
2015-12-18B73701.045799-361Charter
2016-07-23B7371.0410312-184Yes
(pireps marked green are flown by you)

Route map